sensor_id;sensor_type;location;lat;lon;timestamp;P1;durP1;ratioP1;P2;durP2;ratioP2
48853;SDS011;34673;52.808;17.856;2023-11-18T00:00:02;60.00;;;27.77;;
48853;SDS011;34673;52.808;17.856;2023-11-18T00:02:38;55.17;;;26.17;;
48853;SDS011;34673;52.808;17.856;2023-11-18T00:05:05;53.92;;;26.27;;
48853;SDS011;34673;52.808;17.856;2023-11-18T00:07:34;53.75;;;25.83;;
48853;SDS011;34673;52.808;17.856;2023-11-18T00:10:01;54.30;;;26.35;;
48853;SDS011;34673;52.808;17.856;2023-11-18T00:12:30;66.45;;;30.95;;
48853;SDS011;34673;52.808;17.856;2023-11-18T00:14:57;69.10;;;30.52;;
48853;SDS011;34673;52.808;17.856;2023-11-18T00:17:24;87.38;;;35.63;;
48853;SDS011;34673;52.808;17.856;2023-11-18T00:19:51;77.03;;;32.80;;
48853;SDS011;34673;52.808;17.856;2023-11-18T00:22:20;85.10;;;35.03;;
48853;SDS011;34673;52.808;17.856;2023-11-18T00:24:47;83.63;;;34.45;;
48853;SDS011;34673;52.808;17.856;2023-11-18T00:27:15;95.10;;;35.60;;
48853;SDS011;34673;52.808;17.856;2023-11-18T00:29:42;88.35;;;36.65;;
48853;SDS011;34673;52.808;17.856;2023-11-18T00:32:10;87.70;;;35.38;;
48853;SDS011;34673;52.808;17.856;2023-11-18T00:34:39;104.68;;;39.67;;
48853;SDS011;34673;52.808;17.856;2023-11-18T00:37:07;101.43;;;37.42;;
48853;SDS011;34673;52.808;17.856;2023-11-18T00:39:34;116.82;;;39.15;;
48853;SDS011;34673;52.808;17.856;2023-11-18T00:42:01;123.35;;;38.22;;
48853;SDS011;34673;52.808;17.856;2023-11-18T00:44:29;122.90;;;39.70;;
48853;SDS011;34673;52.808;17.856;2023-11-18T00:46:56;85.13;;;33.95;;
48853;SDS011;34673;52.808;17.856;2023-11-18T00:49:24;106.28;;;37.17;;
48853;SDS011;34673;52.808;17.856;2023-11-18T00:51:52;93.68;;;35.08;;
48853;SDS011;34673;52.808;17.856;2023-11-18T00:54:20;92.40;;;34.03;;
48853;SDS011;34673;52.808;17.856;2023-11-18T00:56:47;91.47;;;34.47;;
48853;SDS011;34673;52.808;17.856;2023-11-18T00:59:15;92.68;;;33.25;;
48853;SDS011;34673;52.808;17.856;2023-11-18T01:01:42;85.38;;;33.95;;
48853;SDS011;34673;52.808;17.856;2023-11-18T01:04:10;93.75;;;36.15;;
48853;SDS011;34673;52.808;17.856;2023-11-18T01:06:37;86.38;;;34.03;;
48853;SDS011;34673;52.808;17.856;2023-11-18T01:09:05;85.28;;;32.33;;
48853;SDS011;34673;52.808;17.856;2023-11-18T01:11:34;69.80;;;31.15;;
48853;SDS011;34673;52.808;17.856;2023-11-18T01:14:02;70.15;;;30.92;;
48853;SDS011;34673;52.808;17.856;2023-11-18T01:16:29;57.35;;;26.73;;
48853;SDS011;34673;52.808;17.856;2023-11-18T01:18:57;67.30;;;30.00;;
48853;SDS011;34673;52.808;17.856;2023-11-18T01:21:24;60.42;;;28.42;;
48853;SDS011;34673;52.808;17.856;2023-11-18T01:23:51;65.95;;;30.45;;
48853;SDS011;34673;52.808;17.856;2023-11-18T01:26:18;60.75;;;27.95;;
48853;SDS011;34673;52.808;17.856;2023-11-18T01:28:46;51.65;;;25.27;;
48853;SDS011;34673;52.808;17.856;2023-11-18T01:31:13;49.33;;;25.13;;
48853;SDS011;34673;52.808;17.856;2023-11-18T01:33:42;44.80;;;21.55;;
48853;SDS011;34673;52.808;17.856;2023-11-18T01:36:11;38.75;;;20.73;;
48853;SDS011;34673;52.808;17.856;2023-11-18T01:38:39;34.38;;;18.38;;
48853;SDS011;34673;52.808;17.856;2023-11-18T01:41:06;28.13;;;16.30;;
48853;SDS011;34673;52.808;17.856;2023-11-18T01:43:34;26.13;;;14.98;;
48853;SDS011;34673;52.808;17.856;2023-11-18T01:46:02;27.33;;;15.35;;
48853;SDS011;34673;52.808;17.856;2023-11-18T01:48:32;21.48;;;13.40;;
48853;SDS011;34673;52.808;17.856;2023-11-18T01:51:03;23.50;;;14.30;;
48853;SDS011;34673;52.808;17.856;2023-11-18T01:53:34;21.25;;;13.75;;
48853;SDS011;34673;52.808;17.856;2023-11-18T01:56:03;24.83;;;14.95;;
48853;SDS011;34673;52.808;17.856;2023-11-18T01:58:32;25.58;;;15.05;;
48853;SDS011;34673;52.808;17.856;2023-11-18T02:01:02;26.13;;;15.20;;
48853;SDS011;34673;52.808;17.856;2023-11-18T02:03:35;25.92;;;14.75;;
48853;SDS011;34673;52.808;17.856;2023-11-18T02:06:03;23.90;;;14.93;;
48853;SDS011;34673;52.808;17.856;2023-11-18T02:08:35;27.83;;;16.10;;
48853;SDS011;34673;52.808;17.856;2023-11-18T02:11:14;22.13;;;13.88;;
48853;SDS011;34673;52.808;17.856;2023-11-18T02:13:48;25.42;;;15.18;;
48853;SDS011;34673;52.808;17.856;2023-11-18T02:16:19;25.42;;;14.63;;
48853;SDS011;34673;52.808;17.856;2023-11-18T02:18:47;24.13;;;14.90;;
48853;SDS011;34673;52.808;17.856;2023-11-18T02:21:16;26.80;;;14.80;;
48853;SDS011;34673;52.808;17.856;2023-11-18T02:23:43;25.17;;;15.38;;
48853;SDS011;34673;52.808;17.856;2023-11-18T02:26:10;26.80;;;16.08;;
48853;SDS011;34673;52.808;17.856;2023-11-18T02:28:38;23.05;;;14.43;;
48853;SDS011;34673;52.808;17.856;2023-11-18T02:31:08;27.95;;;15.40;;
48853;SDS011;34673;52.808;17.856;2023-11-18T02:33:44;23.75;;;13.75;;
48853;SDS011;34673;52.808;17.856;2023-11-18T02:39:04;25.63;;;14.52;;
48853;SDS011;34673;52.808;17.856;2023-11-18T02:41:38;24.98;;;14.30;;
48853;SDS011;34673;52.808;17.856;2023-11-18T02:44:06;25.52;;;15.15;;
48853;SDS011;34673;52.808;17.856;2023-11-18T02:46:37;25.55;;;14.63;;
48853;SDS011;34673;52.808;17.856;2023-11-18T02:49:05;25.10;;;14.43;;
48853;SDS011;34673;52.808;17.856;2023-11-18T02:51:33;24.70;;;15.20;;
48853;SDS011;34673;52.808;17.856;2023-11-18T02:54:06;22.42;;;13.43;;
48853;SDS011;34673;52.808;17.856;2023-11-18T02:56:37;23.38;;;14.18;;
48853;SDS011;34673;52.808;17.856;2023-11-18T02:59:05;22.15;;;13.65;;
48853;SDS011;34673;52.808;17.856;2023-11-18T03:01:32;20.70;;;12.75;;
48853;SDS011;34673;52.808;17.856;2023-11-18T03:04:01;22.80;;;13.38;;
48853;SDS011;34673;52.808;17.856;2023-11-18T03:06:29;23.02;;;13.45;;
48853;SDS011;34673;52.808;17.856;2023-11-18T03:08:57;20.52;;;12.82;;
48853;SDS011;34673;52.808;17.856;2023-11-18T03:11:24;22.60;;;13.38;;
48853;SDS011;34673;52.808;17.856;2023-11-18T03:13:51;21.35;;;12.63;;
48853;SDS011;34673;52.808;17.856;2023-11-18T03:16:18;21.50;;;12.82;;
48853;SDS011;34673;52.808;17.856;2023-11-18T03:18:45;21.65;;;13.02;;
48853;SDS011;34673;52.808;17.856;2023-11-18T03:21:14;21.27;;;12.30;;
48853;SDS011;34673;52.808;17.856;2023-11-18T03:23:41;19.90;;;12.43;;
48853;SDS011;34673;52.808;17.856;2023-11-18T03:26:09;25.77;;;13.73;;
48853;SDS011;34673;52.808;17.856;2023-11-18T03:28:39;23.17;;;13.25;;
48853;SDS011;34673;52.808;17.856;2023-11-18T03:31:07;22.60;;;13.77;;
48853;SDS011;34673;52.808;17.856;2023-11-18T03:33:34;22.60;;;13.95;;
48853;SDS011;34673;52.808;17.856;2023-11-18T03:36:01;24.02;;;14.07;;
48853;SDS011;34673;52.808;17.856;2023-11-18T03:38:29;25.65;;;14.93;;
48853;SDS011;34673;52.808;17.856;2023-11-18T03:40:57;23.75;;;14.38;;
48853;SDS011;34673;52.808;17.856;2023-11-18T03:43:25;25.10;;;14.73;;
48853;SDS011;34673;52.808;17.856;2023-11-18T03:45:52;24.75;;;14.73;;
48853;SDS011;34673;52.808;17.856;2023-11-18T03:48:23;23.80;;;13.95;;
48853;SDS011;34673;52.808;17.856;2023-11-18T03:50:51;28.30;;;15.30;;
48853;SDS011;34673;52.808;17.856;2023-11-18T03:53:20;26.67;;;14.57;;
48853;SDS011;34673;52.808;17.856;2023-11-18T03:55:48;23.73;;;14.35;;
48853;SDS011;34673;52.808;17.856;2023-11-18T03:58:15;30.00;;;16.10;;
48853;SDS011;34673;52.808;17.856;2023-11-18T04:00:42;27.30;;;15.30;;
48853;SDS011;34673;52.808;17.856;2023-11-18T04:03:09;30.98;;;16.42;;
48853;SDS011;34673;52.808;17.856;2023-11-18T04:05:37;29.77;;;15.65;;
48853;SDS011;34673;52.808;17.856;2023-11-18T04:08:05;26.95;;;15.73;;
48853;SDS011;34673;52.808;17.856;2023-11-18T04:10:33;27.80;;;16.02;;
48853;SDS011;34673;52.808;17.856;2023-11-18T04:13:00;30.63;;;16.88;;
48853;SDS011;34673;52.808;17.856;2023-11-18T04:15:28;32.25;;;17.63;;
48853;SDS011;34673;52.808;17.856;2023-11-18T04:17:55;33.05;;;18.33;;
48853;SDS011;34673;52.808;17.856;2023-11-18T04:20:22;36.83;;;18.02;;
48853;SDS011;34673;52.808;17.856;2023-11-18T04:22:50;34.20;;;17.92;;
48853;SDS011;34673;52.808;17.856;2023-11-18T04:25:17;34.50;;;18.98;;
48853;SDS011;34673;52.808;17.856;2023-11-18T04:27:44;40.65;;;19.75;;
48853;SDS011;34673;52.808;17.856;2023-11-18T04:30:13;35.22;;;19.58;;
48853;SDS011;34673;52.808;17.856;2023-11-18T04:32:40;40.47;;;21.38;;
48853;SDS011;34673;52.808;17.856;2023-11-18T04:35:10;32.80;;;18.55;;
48853;SDS011;34673;52.808;17.856;2023-11-18T04:37:39;39.75;;;19.83;;
48853;SDS011;34673;52.808;17.856;2023-11-18T04:40:10;33.65;;;18.33;;
48853;SDS011;34673;52.808;17.856;2023-11-18T04:42:40;35.07;;;19.30;;
48853;SDS011;34673;52.808;17.856;2023-11-18T04:45:07;30.27;;;17.42;;
48853;SDS011;34673;52.808;17.856;2023-11-18T04:47:36;33.45;;;18.08;;
48853;SDS011;34673;52.808;17.856;2023-11-18T04:50:06;28.90;;;16.95;;
48853;SDS011;34673;52.808;17.856;2023-11-18T04:52:35;34.28;;;18.48;;
48853;SDS011;34673;52.808;17.856;2023-11-18T04:55:03;35.10;;;18.25;;
48853;SDS011;34673;52.808;17.856;2023-11-18T04:57:32;33.03;;;18.08;;
48853;SDS011;34673;52.808;17.856;2023-11-18T05:00:01;35.03;;;17.85;;
48853;SDS011;34673;52.808;17.856;2023-11-18T05:02:40;32.38;;;16.95;;
48853;SDS011;34673;52.808;17.856;2023-11-18T05:05:08;32.35;;;17.13;;
48853;SDS011;34673;52.808;17.856;2023-11-18T05:07:36;32.00;;;17.10;;
48853;SDS011;34673;52.808;17.856;2023-11-18T05:10:05;29.77;;;17.40;;
48853;SDS011;34673;52.808;17.856;2023-11-18T05:12:34;31.05;;;17.08;;
48853;SDS011;34673;52.808;17.856;2023-11-18T05:15:03;35.15;;;18.23;;
48853;SDS011;34673;52.808;17.856;2023-11-18T05:17:36;30.65;;;17.08;;
48853;SDS011;34673;52.808;17.856;2023-11-18T05:20:04;33.20;;;18.08;;
48853;SDS011;34673;52.808;17.856;2023-11-18T05:22:35;33.85;;;18.10;;
48853;SDS011;34673;52.808;17.856;2023-11-18T05:25:03;34.20;;;18.83;;
48853;SDS011;34673;52.808;17.856;2023-11-18T05:27:34;31.40;;;17.42;;
48853;SDS011;34673;52.808;17.856;2023-11-18T05:30:02;34.15;;;18.02;;
48853;SDS011;34673;52.808;17.856;2023-11-18T05:32:29;34.72;;;19.27;;
48853;SDS011;34673;52.808;17.856;2023-11-18T05:35:00;36.65;;;19.42;;
48853;SDS011;34673;52.808;17.856;2023-11-18T05:37:28;34.67;;;18.27;;
48853;SDS011;34673;52.808;17.856;2023-11-18T05:39:56;31.63;;;17.70;;
48853;SDS011;34673;52.808;17.856;2023-11-18T05:42:35;34.60;;;18.92;;
48853;SDS011;34673;52.808;17.856;2023-11-18T05:45:06;34.00;;;18.60;;
48853;SDS011;34673;52.808;17.856;2023-11-18T05:47:34;34.50;;;19.35;;
48853;SDS011;34673;52.808;17.856;2023-11-18T05:50:02;34.13;;;18.80;;
48853;SDS011;34673;52.808;17.856;2023-11-18T05:54:59;34.85;;;18.92;;
48853;SDS011;34673;52.808;17.856;2023-11-18T05:57:26;38.92;;;20.00;;
48853;SDS011;34673;52.808;17.856;2023-11-18T05:59:53;36.97;;;19.48;;
48853;SDS011;34673;52.808;17.856;2023-11-18T06:02:21;36.35;;;19.40;;
48853;SDS011;34673;52.808;17.856;2023-11-18T06:07:19;37.67;;;18.92;;
48853;SDS011;34673;52.808;17.856;2023-11-18T06:09:46;34.53;;;18.65;;
48853;SDS011;34673;52.808;17.856;2023-11-18T06:12:14;35.20;;;18.88;;
48853;SDS011;34673;52.808;17.856;2023-11-18T06:14:44;33.55;;;18.65;;
48853;SDS011;34673;52.808;17.856;2023-11-18T06:17:13;32.03;;;18.33;;
48853;SDS011;34673;52.808;17.856;2023-11-18T06:19:40;32.63;;;18.23;;
48853;SDS011;34673;52.808;17.856;2023-11-18T06:22:08;36.65;;;19.25;;
48853;SDS011;34673;52.808;17.856;2023-11-18T06:24:35;39.65;;;19.23;;
48853;SDS011;34673;52.808;17.856;2023-11-18T06:27:02;37.08;;;18.88;;
48853;SDS011;34673;52.808;17.856;2023-11-18T06:29:30;31.88;;;17.17;;
48853;SDS011;34673;52.808;17.856;2023-11-18T06:31:57;34.88;;;19.08;;
48853;SDS011;34673;52.808;17.856;2023-11-18T06:34:24;35.90;;;18.95;;
48853;SDS011;34673;52.808;17.856;2023-11-18T06:36:53;35.33;;;18.73;;
48853;SDS011;34673;52.808;17.856;2023-11-18T06:39:22;36.47;;;19.30;;
48853;SDS011;34673;52.808;17.856;2023-11-18T06:41:56;33.38;;;17.40;;
48853;SDS011;34673;52.808;17.856;2023-11-18T06:44:25;33.03;;;17.48;;
48853;SDS011;34673;52.808;17.856;2023-11-18T06:46:52;33.97;;;18.08;;
48853;SDS011;34673;52.808;17.856;2023-11-18T06:49:20;40.15;;;19.67;;
48853;SDS011;34673;52.808;17.856;2023-11-18T06:51:47;37.78;;;18.38;;
48853;SDS011;34673;52.808;17.856;2023-11-18T06:54:14;35.08;;;18.23;;
48853;SDS011;34673;52.808;17.856;2023-11-18T06:56:42;33.53;;;18.35;;
48853;SDS011;34673;52.808;17.856;2023-11-18T06:59:11;37.40;;;19.67;;
48853;SDS011;34673;52.808;17.856;2023-11-18T07:01:40;34.00;;;18.48;;
48853;SDS011;34673;52.808;17.856;2023-11-18T07:04:12;36.97;;;17.98;;
48853;SDS011;34673;52.808;17.856;2023-11-18T07:06:42;37.65;;;19.02;;
48853;SDS011;34673;52.808;17.856;2023-11-18T07:09:11;35.35;;;18.15;;
48853;SDS011;34673;52.808;17.856;2023-11-18T07:11:47;32.70;;;17.77;;
48853;SDS011;34673;52.808;17.856;2023-11-18T07:14:15;36.95;;;19.25;;
48853;SDS011;34673;52.808;17.856;2023-11-18T07:16:43;38.08;;;19.42;;
48853;SDS011;34673;52.808;17.856;2023-11-18T07:19:11;54.55;;;28.90;;
48853;SDS011;34673;52.808;17.856;2023-11-18T07:21:48;35.25;;;19.20;;
48853;SDS011;34673;52.808;17.856;2023-11-18T07:24:16;38.53;;;20.38;;
48853;SDS011;34673;52.808;17.856;2023-11-18T07:26:44;37.63;;;19.85;;
48853;SDS011;34673;52.808;17.856;2023-11-18T07:29:12;37.88;;;19.88;;
48853;SDS011;34673;52.808;17.856;2023-11-18T07:31:39;33.28;;;18.85;;
48853;SDS011;34673;52.808;17.856;2023-11-18T07:34:07;36.72;;;19.52;;
48853;SDS011;34673;52.808;17.856;2023-11-18T07:36:34;38.80;;;19.10;;
48853;SDS011;34673;52.808;17.856;2023-11-18T07:39:01;29.65;;;17.17;;
48853;SDS011;34673;52.808;17.856;2023-11-18T07:41:33;31.45;;;18.10;;
48853;SDS011;34673;52.808;17.856;2023-11-18T07:46:28;35.63;;;18.05;;
48853;SDS011;34673;52.808;17.856;2023-11-18T07:48:58;34.67;;;19.33;;
48853;SDS011;34673;52.808;17.856;2023-11-18T07:51:26;33.42;;;18.60;;
48853;SDS011;34673;52.808;17.856;2023-11-18T07:53:53;33.80;;;18.27;;
48853;SDS011;34673;52.808;17.856;2023-11-18T07:56:20;31.55;;;17.30;;
48853;SDS011;34673;52.808;17.856;2023-11-18T08:01:19;32.22;;;18.13;;
48853;SDS011;34673;52.808;17.856;2023-11-18T08:03:48;32.50;;;18.20;;
48853;SDS011;34673;52.808;17.856;2023-11-18T08:06:18;28.55;;;16.85;;
48853;SDS011;34673;52.808;17.856;2023-11-18T08:08:45;33.17;;;17.38;;
48853;SDS011;34673;52.808;17.856;2023-11-18T08:11:15;30.07;;;17.43;;
48853;SDS011;34673;52.808;17.856;2023-11-18T08:13:42;30.67;;;17.95;;
48853;SDS011;34673;52.808;17.856;2023-11-18T08:16:10;31.40;;;18.23;;
48853;SDS011;34673;52.808;17.856;2023-11-18T08:18:39;32.03;;;18.55;;
48853;SDS011;34673;52.808;17.856;2023-11-18T08:21:07;32.90;;;18.88;;
48853;SDS011;34673;52.808;17.856;2023-11-18T08:23:34;32.95;;;18.52;;
48853;SDS011;34673;52.808;17.856;2023-11-18T08:26:02;34.22;;;19.20;;
48853;SDS011;34673;52.808;17.856;2023-11-18T08:28:32;32.03;;;18.50;;
48853;SDS011;34673;52.808;17.856;2023-11-18T08:30:59;33.20;;;18.88;;
48853;SDS011;34673;52.808;17.856;2023-11-18T08:33:27;32.90;;;19.10;;
48853;SDS011;34673;52.808;17.856;2023-11-18T08:35:56;38.50;;;21.35;;
48853;SDS011;34673;52.808;17.856;2023-11-18T08:38:23;39.65;;;21.40;;
48853;SDS011;34673;52.808;17.856;2023-11-18T08:40:51;32.70;;;18.70;;
48853;SDS011;34673;52.808;17.856;2023-11-18T08:43:18;35.75;;;19.25;;
48853;SDS011;34673;52.808;17.856;2023-11-18T08:45:48;32.70;;;19.08;;
48853;SDS011;34673;52.808;17.856;2023-11-18T08:48:17;33.00;;;18.27;;
48853;SDS011;34673;52.808;17.856;2023-11-18T08:50:45;32.70;;;17.67;;
48853;SDS011;34673;52.808;17.856;2023-11-18T08:53:14;32.03;;;19.63;;
48853;SDS011;34673;52.808;17.856;2023-11-18T08:55:45;33.83;;;18.63;;
48853;SDS011;34673;52.808;17.856;2023-11-18T08:58:22;35.85;;;21.70;;
48853;SDS011;34673;52.808;17.856;2023-11-18T09:00:56;33.03;;;19.60;;
48853;SDS011;34673;52.808;17.856;2023-11-18T09:03:41;30.65;;;17.65;;
48853;SDS011;34673;52.808;17.856;2023-11-18T09:06:19;29.70;;;17.73;;
48853;SDS011;34673;52.808;17.856;2023-11-18T09:08:55;31.85;;;17.98;;
48853;SDS011;34673;52.808;17.856;2023-11-18T09:11:25;31.08;;;18.42;;
48853;SDS011;34673;52.808;17.856;2023-11-18T09:13:59;32.92;;;19.17;;
48853;SDS011;34673;52.808;17.856;2023-11-18T09:16:28;31.55;;;19.38;;
48853;SDS011;34673;52.808;17.856;2023-11-18T09:18:57;31.10;;;17.85;;
48853;SDS011;34673;52.808;17.856;2023-11-18T09:21:26;31.50;;;19.00;;
48853;SDS011;34673;52.808;17.856;2023-11-18T09:26:24;33.50;;;19.17;;
48853;SDS011;34673;52.808;17.856;2023-11-18T09:28:53;33.22;;;19.58;;
48853;SDS011;34673;52.808;17.856;2023-11-18T09:31:20;35.58;;;20.25;;
48853;SDS011;34673;52.808;17.856;2023-11-18T09:33:48;32.83;;;18.45;;
48853;SDS011;34673;52.808;17.856;2023-11-18T09:36:19;35.83;;;19.60;;
48853;SDS011;34673;52.808;17.856;2023-11-18T09:38:48;33.13;;;18.70;;
48853;SDS011;34673;52.808;17.856;2023-11-18T09:41:22;33.72;;;19.52;;
48853;SDS011;34673;52.808;17.856;2023-11-18T09:43:52;34.88;;;19.67;;
48853;SDS011;34673;52.808;17.856;2023-11-18T09:46:24;33.72;;;20.67;;
48853;SDS011;34673;52.808;17.856;2023-11-18T09:51:57;37.47;;;20.50;;
48853;SDS011;34673;52.808;17.856;2023-11-18T09:55:02;35.70;;;20.05;;
48853;SDS011;34673;52.808;17.856;2023-11-18T09:57:43;34.30;;;20.63;;
48853;SDS011;34673;52.808;17.856;2023-11-18T10:00:15;36.08;;;20.88;;
48853;SDS011;34673;52.808;17.856;2023-11-18T10:02:48;35.70;;;20.45;;
48853;SDS011;34673;52.808;17.856;2023-11-18T10:05:19;36.40;;;20.90;;
48853;SDS011;34673;52.808;17.856;2023-11-18T10:07:49;28.10;;;16.67;;
48853;SDS011;34673;52.808;17.856;2023-11-18T10:10:18;36.63;;;21.45;;
48853;SDS011;34673;52.808;17.856;2023-11-18T10:12:48;36.85;;;21.58;;
48853;SDS011;34673;52.808;17.856;2023-11-18T10:15:21;39.85;;;21.73;;
48853;SDS011;34673;52.808;17.856;2023-11-18T10:17:52;36.05;;;20.42;;
48853;SDS011;34673;52.808;17.856;2023-11-18T10:20:43;36.47;;;20.50;;
48853;SDS011;34673;52.808;17.856;2023-11-18T10:23:14;36.80;;;20.85;;
48853;SDS011;34673;52.808;17.856;2023-11-18T10:25:52;34.15;;;19.77;;
48853;SDS011;34673;52.808;17.856;2023-11-18T10:28:21;35.00;;;21.67;;
48853;SDS011;34673;52.808;17.856;2023-11-18T10:31:05;35.20;;;20.38;;
48853;SDS011;34673;52.808;17.856;2023-11-18T10:33:40;31.55;;;19.27;;
48853;SDS011;34673;52.808;17.856;2023-11-18T10:36:17;29.75;;;17.92;;
48853;SDS011;34673;52.808;17.856;2023-11-18T10:38:52;28.83;;;17.35;;
48853;SDS011;34673;52.808;17.856;2023-11-18T10:41:23;29.35;;;17.98;;
48853;SDS011;34673;52.808;17.856;2023-11-18T10:44:06;27.73;;;17.45;;
48853;SDS011;34673;52.808;17.856;2023-11-18T10:46:34;28.80;;;17.83;;
48853;SDS011;34673;52.808;17.856;2023-11-18T10:49:02;27.45;;;16.73;;
48853;SDS011;34673;52.808;17.856;2023-11-18T10:51:37;27.80;;;16.08;;
48853;SDS011;34673;52.808;17.856;2023-11-18T10:54:07;26.13;;;15.63;;
48853;SDS011;34673;52.808;17.856;2023-11-18T10:56:47;23.92;;;14.57;;
48853;SDS011;34673;52.808;17.856;2023-11-18T10:59:18;23.40;;;15.45;;
48853;SDS011;34673;52.808;17.856;2023-11-18T11:01:45;27.33;;;16.35;;
48853;SDS011;34673;52.808;17.856;2023-11-18T11:04:17;23.85;;;14.93;;
48853;SDS011;34673;52.808;17.856;2023-11-18T11:06:48;20.90;;;13.52;;
48853;SDS011;34673;52.808;17.856;2023-11-18T11:09:20;21.95;;;13.23;;
48853;SDS011;34673;52.808;17.856;2023-11-18T11:11:58;21.42;;;13.40;;
48853;SDS011;34673;52.808;17.856;2023-11-18T11:14:37;21.45;;;12.93;;
48853;SDS011;34673;52.808;17.856;2023-11-18T11:17:12;23.33;;;14.15;;
48853;SDS011;34673;52.808;17.856;2023-11-18T11:19:50;20.92;;;12.68;;
48853;SDS011;34673;52.808;17.856;2023-11-18T11:22:29;23.55;;;14.38;;
48853;SDS011;34673;52.808;17.856;2023-11-18T11:25:16;21.38;;;13.07;;
48853;SDS011;34673;52.808;17.856;2023-11-18T11:28:23;19.58;;;12.90;;
48853;SDS011;34673;52.808;17.856;2023-11-18T11:30:50;19.75;;;12.18;;
48853;SDS011;34673;52.808;17.856;2023-11-18T11:33:25;20.55;;;12.05;;
48853;SDS011;34673;52.808;17.856;2023-11-18T11:35:59;22.35;;;13.30;;
48853;SDS011;34673;52.808;17.856;2023-11-18T11:38:30;21.73;;;13.23;;
48853;SDS011;34673;52.808;17.856;2023-11-18T11:40:59;22.23;;;12.60;;
48853;SDS011;34673;52.808;17.856;2023-11-18T11:43:28;20.33;;;12.40;;
48853;SDS011;34673;52.808;17.856;2023-11-18T11:45:56;18.33;;;11.48;;
48853;SDS011;34673;52.808;17.856;2023-11-18T11:48:24;18.38;;;11.23;;
48853;SDS011;34673;52.808;17.856;2023-11-18T11:54:09;18.17;;;11.38;;
48853;SDS011;34673;52.808;17.856;2023-11-18T11:56:42;16.48;;;9.45;;
48853;SDS011;34673;52.808;17.856;2023-11-18T11:59:10;17.23;;;10.77;;
48853;SDS011;34673;52.808;17.856;2023-11-18T12:01:38;17.08;;;10.73;;
48853;SDS011;34673;52.808;17.856;2023-11-18T12:04:14;16.35;;;10.32;;
48853;SDS011;34673;52.808;17.856;2023-11-18T12:06:48;17.92;;;10.00;;
48853;SDS011;34673;52.808;17.856;2023-11-18T12:09:27;15.95;;;10.63;;
48853;SDS011;34673;52.808;17.856;2023-11-18T12:12:14;15.85;;;10.07;;
48853;SDS011;34673;52.808;17.856;2023-11-18T12:14:49;19.60;;;11.65;;
48853;SDS011;34673;52.808;17.856;2023-11-18T12:17:23;15.70;;;9.88;;
48853;SDS011;34673;52.808;17.856;2023-11-18T12:19:58;15.90;;;10.38;;
48853;SDS011;34673;52.808;17.856;2023-11-18T12:22:26;16.63;;;10.40;;
48853;SDS011;34673;52.808;17.856;2023-11-18T12:32:57;17.67;;;10.82;;
48853;SDS011;34673;52.808;17.856;2023-11-18T12:35:25;18.92;;;11.50;;
48853;SDS011;34673;52.808;17.856;2023-11-18T12:43:17;16.80;;;9.80;;
48853;SDS011;34673;52.808;17.856;2023-11-18T12:48:51;16.60;;;10.10;;
48853;SDS011;34673;52.808;17.856;2023-11-18T12:51:23;16.05;;;9.82;;
48853;SDS011;34673;52.808;17.856;2023-11-18T12:53:50;16.30;;;9.75;;
48853;SDS011;34673;52.808;17.856;2023-11-18T12:56:20;16.10;;;9.88;;
48853;SDS011;34673;52.808;17.856;2023-11-18T12:58:50;16.90;;;9.77;;
48853;SDS011;34673;52.808;17.856;2023-11-18T13:01:18;13.90;;;9.63;;
48853;SDS011;34673;52.808;17.856;2023-11-18T13:03:46;14.20;;;9.38;;
48853;SDS011;34673;52.808;17.856;2023-11-18T13:06:14;15.70;;;9.02;;
48853;SDS011;34673;52.808;17.856;2023-11-18T13:08:41;13.38;;;8.82;;
48853;SDS011;34673;52.808;17.856;2023-11-18T13:11:09;13.80;;;8.63;;
48853;SDS011;34673;52.808;17.856;2023-11-18T13:13:43;14.10;;;8.23;;
48853;SDS011;34673;52.808;17.856;2023-11-18T13:16:10;14.25;;;8.13;;
48853;SDS011;34673;52.808;17.856;2023-11-18T13:18:42;14.95;;;8.35;;
48853;SDS011;34673;52.808;17.856;2023-11-18T13:21:14;16.05;;;8.40;;
48853;SDS011;34673;52.808;17.856;2023-11-18T13:23:45;13.77;;;8.27;;
48853;SDS011;34673;52.808;17.856;2023-11-18T13:26:19;12.57;;;8.20;;
48853;SDS011;34673;52.808;17.856;2023-11-18T13:28:48;12.70;;;8.15;;
48853;SDS011;34673;52.808;17.856;2023-11-18T13:31:16;16.45;;;8.20;;
48853;SDS011;34673;52.808;17.856;2023-11-18T13:33:46;18.63;;;9.55;;
48853;SDS011;34673;52.808;17.856;2023-11-18T13:36:15;15.50;;;9.90;;
48853;SDS011;34673;52.808;17.856;2023-11-18T13:38:43;22.70;;;13.68;;
48853;SDS011;34673;52.808;17.856;2023-11-18T13:41:11;13.25;;;7.38;;
48853;SDS011;34673;52.808;17.856;2023-11-18T13:43:46;14.65;;;7.63;;
48853;SDS011;34673;52.808;17.856;2023-11-18T13:46:14;12.98;;;7.80;;
48853;SDS011;34673;52.808;17.856;2023-11-18T13:48:41;12.35;;;7.57;;
48853;SDS011;34673;52.808;17.856;2023-11-18T13:51:13;13.70;;;7.97;;
48853;SDS011;34673;52.808;17.856;2023-11-18T13:53:42;12.52;;;7.82;;
48853;SDS011;34673;52.808;17.856;2023-11-18T13:56:10;15.02;;;8.82;;
48853;SDS011;34673;52.808;17.856;2023-11-18T13:58:39;19.27;;;9.85;;
48853;SDS011;34673;52.808;17.856;2023-11-18T14:01:07;13.70;;;8.73;;
48853;SDS011;34673;52.808;17.856;2023-11-18T14:03:37;12.15;;;7.32;;
48853;SDS011;34673;52.808;17.856;2023-11-18T14:06:07;13.93;;;8.65;;
48853;SDS011;34673;52.808;17.856;2023-11-18T14:08:40;17.38;;;10.07;;
48853;SDS011;34673;52.808;17.856;2023-11-18T14:11:08;15.25;;;9.73;;
48853;SDS011;34673;52.808;17.856;2023-11-18T14:13:43;12.73;;;8.80;;
48853;SDS011;34673;52.808;17.856;2023-11-18T14:16:11;13.95;;;8.05;;
48853;SDS011;34673;52.808;17.856;2023-11-18T14:18:40;15.30;;;8.00;;
48853;SDS011;34673;52.808;17.856;2023-11-18T14:21:08;15.90;;;8.77;;
48853;SDS011;34673;52.808;17.856;2023-11-18T14:23:36;13.20;;;8.27;;
48853;SDS011;34673;52.808;17.856;2023-11-18T14:26:05;14.00;;;7.88;;
48853;SDS011;34673;52.808;17.856;2023-11-18T14:28:34;15.07;;;9.20;;
48853;SDS011;34673;52.808;17.856;2023-11-18T14:31:01;17.88;;;8.73;;
48853;SDS011;34673;52.808;17.856;2023-11-18T14:33:34;15.45;;;10.55;;
48853;SDS011;34673;52.808;17.856;2023-11-18T14:36:02;18.98;;;10.82;;
48853;SDS011;34673;52.808;17.856;2023-11-18T14:38:32;17.83;;;10.43;;
48853;SDS011;34673;52.808;17.856;2023-11-18T14:41:01;16.25;;;9.90;;
48853;SDS011;34673;52.808;17.856;2023-11-18T14:43:29;15.70;;;9.38;;
48853;SDS011;34673;52.808;17.856;2023-11-18T14:45:57;15.13;;;9.70;;
48853;SDS011;34673;52.808;17.856;2023-11-18T14:48:24;22.30;;;14.15;;
48853;SDS011;34673;52.808;17.856;2023-11-18T14:50:52;20.10;;;12.25;;
48853;SDS011;34673;52.808;17.856;2023-11-18T14:53:19;17.00;;;10.70;;
48853;SDS011;34673;52.808;17.856;2023-11-18T14:55:46;16.90;;;10.35;;
48853;SDS011;34673;52.808;17.856;2023-11-18T14:58:13;18.48;;;9.93;;
48853;SDS011;34673;52.808;17.856;2023-11-18T15:00:41;18.45;;;9.48;;
48853;SDS011;34673;52.808;17.856;2023-11-18T15:03:09;18.65;;;9.90;;